createdAt,value
2022-11-05T00:01:37.375Z,12.77
2022-11-05T00:04:26.757Z,10.77
2022-11-05T00:07:15.218Z,13.20
2022-11-05T00:09:42.933Z,11.07
2022-11-05T00:12:31.037Z,9.90
2022-11-05T00:15:16.399Z,10.87
2022-11-05T00:17:44.117Z,15.00
2022-11-05T00:20:13.404Z,12.10
2022-11-05T00:22:58.374Z,14.07
2022-11-05T00:25:26.385Z,13.43
2022-11-05T00:27:55.122Z,16.70
2022-11-05T00:30:24.203Z,17.50
2022-11-05T00:32:52.426Z,17.53
2022-11-05T00:35:21.062Z,19.27
2022-11-05T00:37:50.309Z,17.90
2022-11-05T00:40:18.288Z,20.73
2022-11-05T00:43:03.522Z,24.87
2022-11-05T00:45:32.428Z,20.33
2022-11-05T00:48:17.199Z,17.37
2022-11-05T00:50:44.619Z,19.83
2022-11-05T00:53:12.280Z,18.17
2022-11-05T00:55:40.386Z,17.07
2022-11-05T00:58:09.102Z,18.07
2022-11-05T01:00:38.823Z,16.27
2022-11-05T01:03:07.389Z,18.60
2022-11-05T01:05:35.972Z,18.37
2022-11-05T01:08:03.387Z,13.37
2022-11-05T01:10:31.933Z,15.23
2022-11-05T01:12:59.587Z,16.93
2022-11-05T01:15:27.112Z,14.53
2022-11-05T01:17:55.867Z,17.50
2022-11-05T01:20:23.507Z,15.10
2022-11-05T01:22:50.869Z,13.80
2022-11-05T01:25:18.324Z,19.80
2022-11-05T01:27:45.743Z,14.63
2022-11-05T01:30:13.860Z,12.63
2022-11-05T01:32:41.261Z,14.60
2022-11-05T01:35:12.117Z,16.40
2022-11-05T01:37:39.818Z,14.40
2022-11-05T01:40:08.534Z,21.50
2022-11-05T01:42:35.965Z,15.80
2022-11-05T01:45:05.098Z,17.57
2022-11-05T01:47:42.404Z,14.13
2022-11-05T01:50:19.629Z,13.17
2022-11-05T01:52:47.908Z,13.43
2022-11-05T01:55:17.752Z,14.67
2022-11-05T01:57:45.170Z,13.40
2022-11-05T02:00:13.469Z,15.80
2022-11-05T02:02:41.057Z,18.20
2022-11-05T02:05:08.972Z,13.87
2022-11-05T02:07:38.006Z,16.10
2022-11-05T02:10:06.670Z,15.93
2022-11-05T02:12:34.487Z,13.93
2022-11-05T02:15:01.931Z,14.40
2022-11-05T02:17:43.106Z,16.73
2022-11-05T02:20:16.589Z,12.77
2022-11-05T02:23:02.667Z,13.23
2022-11-05T02:25:39.503Z,13.43
2022-11-05T02:28:16.011Z,13.80
2022-11-05T02:30:47.538Z,14.00
2022-11-05T02:33:29.401Z,12.07
2022-11-05T02:36:11.706Z,12.60
2022-11-05T02:38:41.445Z,13.83
2022-11-05T02:41:11.898Z,14.50
2022-11-05T02:43:46.525Z,12.67
2022-11-05T02:46:19.751Z,15.63
2022-11-05T02:48:51.284Z,13.17
2022-11-05T02:51:24.457Z,14.70
2022-11-05T02:53:54.620Z,14.10
2022-11-05T02:56:23.638Z,13.90
2022-11-05T02:58:51.038Z,15.40
2022-11-05T03:01:19.889Z,16.67
2022-11-05T03:03:49.058Z,18.93
2022-11-05T03:06:34.310Z,16.17
2022-11-05T03:09:07.651Z,20.30
2022-11-05T03:11:41.324Z,13.33
2022-11-05T03:14:12.851Z,15.23
2022-11-05T03:16:42.957Z,15.57
2022-11-05T03:19:14.874Z,18.00
2022-11-05T03:21:45.443Z,19.77
2022-11-05T03:24:15.294Z,25.93
2022-11-05T03:26:44.392Z,19.50
2022-11-05T03:29:14.378Z,16.97
2022-11-05T03:31:45.185Z,16.07
2022-11-05T03:34:14.431Z,16.73
2022-11-05T03:36:42.990Z,16.00
2022-11-05T03:39:12.103Z,15.60
2022-11-05T03:41:40.398Z,15.60
2022-11-05T03:44:08.317Z,17.83
2022-11-05T03:46:39.576Z,17.73
2022-11-05T03:49:10.644Z,17.70
2022-11-05T03:51:42.742Z,16.00
2022-11-05T03:54:10.668Z,18.60
2022-11-05T03:56:39.841Z,17.40
2022-11-05T03:59:08.463Z,19.07
2022-11-05T04:01:37.300Z,24.33
2022-11-05T04:04:05.217Z,18.03
2022-11-05T04:06:51.321Z,16.30
2022-11-05T04:09:38.860Z,17.20
2022-11-05T04:12:24.266Z,17.90
2022-11-05T04:14:51.643Z,21.60
2022-11-05T04:17:18.062Z,16.27
2022-11-05T04:20:03.917Z,20.93
2022-11-05T04:22:50.938Z,17.40
2022-11-05T04:25:19.317Z,19.80
2022-11-05T04:27:47.186Z,21.57
2022-11-05T04:30:20.343Z,23.93
2022-11-05T04:32:58.282Z,16.77
2022-11-05T04:35:26.553Z,17.10
2022-11-05T04:37:55.355Z,17.00
2022-11-05T04:40:22.777Z,18.40
2022-11-05T04:42:50.199Z,15.60
2022-11-05T04:45:17.586Z,16.40
2022-11-05T04:47:45.169Z,16.57
2022-11-05T04:50:13.201Z,16.93
2022-11-05T04:52:40.891Z,18.00
2022-11-05T04:55:09.849Z,17.43
2022-11-05T04:57:37.552Z,18.60
2022-11-05T05:00:06.035Z,16.50
2022-11-05T05:02:33.507Z,14.27
2022-11-05T05:05:00.897Z,16.33
2022-11-05T05:07:28.450Z,17.43
2022-11-05T05:09:55.901Z,18.10
2022-11-05T05:12:24.715Z,15.20
2022-11-05T05:14:52.101Z,15.83
2022-11-05T05:17:19.577Z,16.03
2022-11-05T05:20:15.988Z,17.03
2022-11-05T05:22:43.397Z,15.97
2022-11-05T05:25:10.796Z,15.13
2022-11-05T05:27:39.818Z,15.17
2022-11-05T05:30:07.927Z,13.20
2022-11-05T05:32:35.349Z,18.03
2022-11-05T05:35:02.781Z,14.63
2022-11-05T05:37:30.176Z,14.50
2022-11-05T05:39:57.562Z,14.80
2022-11-05T05:42:25.032Z,16.63
2022-11-05T05:44:53.744Z,16.20
2022-11-05T05:47:21.142Z,15.80
2022-11-05T05:49:48.526Z,16.50
2022-11-05T05:52:15.942Z,16.27
2022-11-05T05:54:43.340Z,15.23
2022-11-05T05:57:10.822Z,15.63
2022-11-05T05:59:38.638Z,15.43
2022-11-05T06:02:07.504Z,15.60
2022-11-05T06:04:35.030Z,13.97
2022-11-05T06:07:02.425Z,16.50
2022-11-05T06:09:29.849Z,16.17
2022-11-05T06:11:57.239Z,16.17
2022-11-05T06:14:24.659Z,14.17
2022-11-05T06:16:52.033Z,13.70
2022-11-05T06:19:20.840Z,15.17
2022-11-05T06:21:48.267Z,15.10
2022-11-05T06:24:15.633Z,15.97
2022-11-05T06:26:43.426Z,11.47
2022-11-05T06:29:11.166Z,13.13
2022-11-05T06:31:38.575Z,20.53
2022-11-05T06:34:05.946Z,15.17
2022-11-05T06:36:34.701Z,13.30
2022-11-05T06:39:02.082Z,19.30
2022-11-05T06:41:29.547Z,14.27
2022-11-05T06:43:56.939Z,12.87
2022-11-05T06:46:24.369Z,15.93
2022-11-05T06:48:51.942Z,14.63
2022-11-05T06:51:19.503Z,15.50
2022-11-05T06:53:48.218Z,11.10
2022-11-05T06:56:15.609Z,16.73
2022-11-05T06:58:43.036Z,17.30
2022-11-05T07:01:11.001Z,19.53
2022-11-05T07:03:38.917Z,18.00
2022-11-05T07:06:07.166Z,16.70
2022-11-05T07:08:34.529Z,12.33
2022-11-05T07:11:03.338Z,14.03
2022-11-05T07:13:30.787Z,22.33
2022-11-05T07:15:58.495Z,24.60
2022-11-05T07:18:26.018Z,28.07
2022-11-05T07:20:53.427Z,22.00
2022-11-05T07:23:20.825Z,20.67
2022-11-05T07:25:48.332Z,18.93
2022-11-05T07:28:17.189Z,14.50
2022-11-05T07:30:44.716Z,15.83
2022-11-05T07:33:12.619Z,19.50
2022-11-05T07:35:40.340Z,16.50
2022-11-05T07:38:07.732Z,14.83
2022-11-05T07:40:35.120Z,13.40
2022-11-05T07:43:02.623Z,15.80
2022-11-05T07:45:32.019Z,13.00
2022-11-05T07:48:00.444Z,14.97
2022-11-05T07:50:29.145Z,16.33
2022-11-05T07:53:00.484Z,13.93
2022-11-05T07:55:27.858Z,14.07
2022-11-05T07:57:55.275Z,15.33
2022-11-05T08:00:23.580Z,16.60
2022-11-05T08:03:03.991Z,17.97
2022-11-05T08:05:36.485Z,14.20
2022-11-05T08:08:04.713Z,11.40
2022-11-05T08:10:33.853Z,14.57
2022-11-05T08:13:01.965Z,16.97
2022-11-05T08:15:29.804Z,13.90
2022-11-05T08:18:01.725Z,17.00
2022-11-05T08:20:29.148Z,18.27
2022-11-05T08:22:56.853Z,17.13
2022-11-05T08:25:24.532Z,19.23
2022-11-05T08:27:56.056Z,23.73
2022-11-05T08:30:23.483Z,20.60
2022-11-05T08:32:50.884Z,18.40
2022-11-05T08:35:20.269Z,23.87
2022-11-05T08:37:47.658Z,22.00
2022-11-05T08:40:15.228Z,20.37
2022-11-05T08:42:42.697Z,20.93
2022-11-05T08:45:10.507Z,17.80
2022-11-05T08:47:37.929Z,22.63
2022-11-05T08:50:05.524Z,16.00
2022-11-05T08:52:34.265Z,16.00
2022-11-05T08:55:01.711Z,18.20
2022-11-05T08:57:29.106Z,20.03
2022-11-05T08:59:56.534Z,16.90
2022-11-05T09:02:24.078Z,17.93
2022-11-05T09:04:51.649Z,18.40
2022-11-05T09:07:19.055Z,16.97
2022-11-05T09:09:47.835Z,17.67
2022-11-05T09:12:15.257Z,18.03
2022-11-05T09:14:42.973Z,16.90
2022-11-05T09:17:14.379Z,15.00
2022-11-05T09:19:41.827Z,19.77
2022-11-05T09:22:12.551Z,14.93
2022-11-05T09:24:39.953Z,12.00
2022-11-05T09:27:10.208Z,13.37
2022-11-05T09:29:37.622Z,12.63
2022-11-05T09:32:05.052Z,13.00
2022-11-05T09:34:32.696Z,16.10
2022-11-05T09:37:00.105Z,14.40
2022-11-05T09:39:27.534Z,12.47
2022-11-05T09:41:56.579Z,14.13
2022-11-05T09:44:26.961Z,13.23
2022-11-05T09:46:56.007Z,11.70
2022-11-05T09:49:26.714Z,8.47
2022-11-05T09:51:54.927Z,13.37
2022-11-05T09:54:24.734Z,14.73
2022-11-05T09:56:52.710Z,11.10
2022-11-05T09:59:22.490Z,9.70
2022-11-05T10:01:52.466Z,10.50
2022-11-05T10:04:21.384Z,8.47
2022-11-05T10:06:50.201Z,8.03
2022-11-05T10:09:21.108Z,7.43
2022-11-05T10:11:50.865Z,9.40
2022-11-05T10:14:21.023Z,9.57
2022-11-05T10:16:50.053Z,8.63
2022-11-05T10:19:24.315Z,6.90
2022-11-05T10:22:06.045Z,11.40
2022-11-05T10:24:34.224Z,8.07
2022-11-05T10:27:02.493Z,10.03
2022-11-05T10:29:32.442Z,9.43
2022-11-05T10:32:02.212Z,11.53
2022-11-05T10:34:33.680Z,7.83
2022-11-05T10:37:01.255Z,7.77
2022-11-05T10:39:29.657Z,8.50
2022-11-05T10:42:02.161Z,8.37
2022-11-05T10:44:33.182Z,8.60
2022-11-05T10:47:07.189Z,12.10
2022-11-05T10:49:44.249Z,7.77
2022-11-05T10:52:20.047Z,9.60
2022-11-05T10:54:47.964Z,7.17
2022-11-05T10:57:28.297Z,8.00
2022-11-05T11:00:18.807Z,12.53
2022-11-05T11:02:47.182Z,10.00
2022-11-05T11:05:20.946Z,7.70
2022-11-05T11:07:54.373Z,10.43
2022-11-05T11:10:22.608Z,7.40
2022-11-05T11:12:51.067Z,8.63
2022-11-05T11:15:24.034Z,8.13
2022-11-05T11:17:51.452Z,5.97
2022-11-05T11:20:25.036Z,5.70
2022-11-05T11:23:03.322Z,6.70
2022-11-05T11:25:32.038Z,7.30
2022-11-05T11:28:02.962Z,10.63
2022-11-05T11:30:30.475Z,9.57
2022-11-05T11:32:59.997Z,6.07
2022-11-05T11:35:29.295Z,5.70
2022-11-05T11:37:58.045Z,4.60
2022-11-05T11:40:30.093Z,5.60
2022-11-05T11:42:58.750Z,4.10
2022-11-05T11:45:28.612Z,6.03
2022-11-05T11:47:57.299Z,4.83
2022-11-05T11:50:36.716Z,6.13
2022-11-05T11:53:22.838Z,2.60
2022-11-05T11:55:58.545Z,4.20
2022-11-05T11:58:36.687Z,4.77
2022-11-05T12:01:08.653Z,4.17
2022-11-05T12:03:38.309Z,3.63
2022-11-05T12:06:11.025Z,2.53
2022-11-05T12:08:45.514Z,4.53
2022-11-05T12:11:17.008Z,3.67
2022-11-05T12:13:51.381Z,3.00
2022-11-05T12:16:23.572Z,2.80
2022-11-05T12:19:05.032Z,4.53
2022-11-05T12:21:52.060Z,2.10
2022-11-05T12:24:32.383Z,5.47
2022-11-05T12:27:06.570Z,2.33
2022-11-05T12:29:37.061Z,4.17
2022-11-05T12:32:15.591Z,3.17
2022-11-05T12:34:56.576Z,2.20
2022-11-05T12:37:28.335Z,4.23
2022-11-05T12:40:10.849Z,4.50
2022-11-05T12:42:46.059Z,4.30
2022-11-05T12:45:22.237Z,3.73
2022-11-05T12:48:00.541Z,3.60
2022-11-05T12:50:32.263Z,4.83
2022-11-05T12:53:10.295Z,1.80
2022-11-05T12:55:42.790Z,1.90
2022-11-05T12:58:15.345Z,3.73
2022-11-05T13:00:44.604Z,2.40
2022-11-05T13:03:20.057Z,2.20
2022-11-05T13:05:50.457Z,2.70
2022-11-05T13:08:21.247Z,2.40
2022-11-05T13:10:51.835Z,3.53
2022-11-05T13:13:22.885Z,4.97
2022-11-05T13:15:51.641Z,3.17
2022-11-05T13:18:21.038Z,3.13
2022-11-05T13:20:52.000Z,2.07
2022-11-05T13:23:24.145Z,5.20
2022-11-05T13:25:54.368Z,3.37
2022-11-05T13:28:28.930Z,4.30
2022-11-05T13:30:58.854Z,2.23
2022-11-05T13:33:28.389Z,2.60
2022-11-05T13:36:22.069Z,1.83
2022-11-05T13:39:00.945Z,3.20
2022-11-05T13:41:32.529Z,1.70
2022-11-05T13:44:06.333Z,2.03
2022-11-05T13:46:44.954Z,2.03
2022-11-05T13:49:22.597Z,1.83
2022-11-05T13:51:52.477Z,4.10
2022-11-05T13:54:37.195Z,2.17
2022-11-05T13:57:19.534Z,4.53
2022-11-05T13:59:53.026Z,2.23
2022-11-05T14:02:22.538Z,2.73
2022-11-05T14:04:54.411Z,2.37
2022-11-05T14:07:27.694Z,2.40
2022-11-05T14:09:57.287Z,2.70
2022-11-05T14:12:26.938Z,3.03
2022-11-05T14:14:59.092Z,4.53
2022-11-05T14:17:28.071Z,3.00
2022-11-05T14:20:08.852Z,3.23
2022-11-05T14:22:39.081Z,5.27
2022-11-05T14:25:25.316Z,3.40
2022-11-05T14:27:53.398Z,4.63
2022-11-05T14:30:41.092Z,3.27
2022-11-05T14:33:15.714Z,6.10
2022-11-05T14:35:43.256Z,2.67
2022-11-05T14:38:21.182Z,5.20
2022-11-05T14:40:49.371Z,2.50
2022-11-05T14:43:20.047Z,2.77
2022-11-05T14:45:54.602Z,3.43
2022-11-05T14:48:28.192Z,7.20
2022-11-05T14:50:55.909Z,4.47
2022-11-05T14:53:32.486Z,5.90
2022-11-05T14:56:02.597Z,6.47
2022-11-05T14:58:34.157Z,7.67
2022-11-05T15:01:01.734Z,6.53
2022-11-05T15:03:31.003Z,5.17
2022-11-05T15:06:05.212Z,3.80
2022-11-05T15:08:36.366Z,4.17
2022-11-05T15:11:08.479Z,4.10
2022-11-05T15:13:39.042Z,4.77
2022-11-05T15:16:07.966Z,3.10
2022-11-05T15:18:37.828Z,3.17
2022-11-05T15:21:05.803Z,4.33
2022-11-05T15:23:37.699Z,2.10
2022-11-05T15:26:07.187Z,2.07
2022-11-05T15:28:36.786Z,3.10
2022-11-05T15:31:05.413Z,2.77
2022-11-05T15:33:33.601Z,4.67
2022-11-05T15:36:09.839Z,2.97
2022-11-05T15:38:38.586Z,8.67
2022-11-05T15:41:07.233Z,9.47
2022-11-05T15:43:34.636Z,8.60
2022-11-05T15:46:06.680Z,7.13
2022-11-05T15:48:34.466Z,9.47
2022-11-05T15:51:02.226Z,6.53
2022-11-05T15:56:24.540Z,3.83
2022-11-05T15:58:54.220Z,4.47
2022-11-05T16:01:23.317Z,3.60
2022-11-05T16:03:51.321Z,2.70
2022-11-05T16:06:19.069Z,7.23
2022-11-05T16:08:48.206Z,3.47
2022-11-05T16:11:21.613Z,3.17
2022-11-05T16:13:51.562Z,3.83
2022-11-05T16:16:35.492Z,3.53
2022-11-05T16:19:02.893Z,2.83
2022-11-05T16:21:30.308Z,3.90
2022-11-05T16:23:59.325Z,4.00
2022-11-05T16:29:31.601Z,3.43
2022-11-05T16:31:59.650Z,3.00
2022-11-05T16:34:28.496Z,6.67
2022-11-05T16:36:56.988Z,3.40
2022-11-05T16:39:24.683Z,3.10
2022-11-05T16:41:52.106Z,6.67
2022-11-05T16:44:21.206Z,6.47
2022-11-05T16:46:49.632Z,6.93
2022-11-05T16:49:17.599Z,4.43
2022-11-05T16:51:45.050Z,8.10
2022-11-05T16:54:12.467Z,2.93
2022-11-05T16:56:42.297Z,3.17
2022-11-05T16:59:12.057Z,8.60
2022-11-05T17:01:41.855Z,2.93
2022-11-05T17:04:10.317Z,7.53
2022-11-05T17:06:37.721Z,8.40
2022-11-05T17:09:05.106Z,5.53
2022-11-05T17:11:32.534Z,7.00
2022-11-05T17:13:59.950Z,6.13
2022-11-05T17:16:28.060Z,3.70
2022-11-05T17:18:56.845Z,7.30
2022-11-05T17:21:24.321Z,5.93
2022-11-05T17:23:51.858Z,7.53
2022-11-05T17:26:19.570Z,4.40
2022-11-05T17:28:46.920Z,3.90
2022-11-05T17:31:14.643Z,5.87
2022-11-05T17:33:42.483Z,7.23
2022-11-05T17:36:12.484Z,6.23
2022-11-05T17:38:40.187Z,4.90
2022-11-05T17:41:11.145Z,6.77
2022-11-05T17:43:38.517Z,3.43
2022-11-05T17:46:07.905Z,5.13
2022-11-05T17:48:35.346Z,5.80
2022-11-05T17:51:03.057Z,5.90
2022-11-05T17:53:32.089Z,6.40
2022-11-05T17:55:59.486Z,6.23
2022-11-05T17:58:26.879Z,6.60
2022-11-05T18:00:54.553Z,4.10
2022-11-05T18:03:21.960Z,4.00
2022-11-05T18:05:49.353Z,5.00
2022-11-05T18:08:16.753Z,3.80
2022-11-05T18:10:45.481Z,4.63
2022-11-05T18:13:13.078Z,4.03
2022-11-05T18:15:41.162Z,8.80
2022-11-05T18:18:09.248Z,6.37
2022-11-05T18:20:36.711Z,4.93
2022-11-05T18:23:04.182Z,5.73
2022-11-05T18:25:31.586Z,7.00
2022-11-05T18:28:00.294Z,10.83
2022-11-05T18:30:27.751Z,5.67
2022-11-05T18:32:55.127Z,6.63
2022-11-05T18:35:22.528Z,6.03
2022-11-05T18:37:49.894Z,8.73
2022-11-05T18:40:17.332Z,4.93
2022-11-05T18:42:44.757Z,5.33
2022-11-05T18:45:13.774Z,6.27
2022-11-05T18:47:41.161Z,8.53
2022-11-05T18:50:10.385Z,5.33
2022-11-05T18:52:37.852Z,6.77
2022-11-05T18:55:05.657Z,6.97
2022-11-05T18:57:33.492Z,9.37
2022-11-05T19:00:00.900Z,7.57
2022-11-05T19:02:29.914Z,11.63
2022-11-05T19:07:44.865Z,7.50
2022-11-05T19:10:12.290Z,9.93
2022-11-05T19:12:39.678Z,8.63
2022-11-05T19:15:08.001Z,8.13
2022-11-05T19:17:36.777Z,11.00
2022-11-05T19:20:05.061Z,8.60
2022-11-05T19:22:32.913Z,10.50
2022-11-05T19:25:00.370Z,6.50
2022-11-05T19:27:27.749Z,9.53
2022-11-05T19:29:55.150Z,7.20
2022-11-05T19:32:22.603Z,8.90
2022-11-05T19:34:51.361Z,12.67
2022-11-05T19:37:19.813Z,8.50
2022-11-05T19:39:47.202Z,17.03
2022-11-05T19:42:14.623Z,8.80
2022-11-05T19:44:43.053Z,11.47
2022-11-05T19:47:10.624Z,10.60
2022-11-05T19:49:38.016Z,9.07
2022-11-05T19:52:07.230Z,8.50
2022-11-05T19:54:35.905Z,9.90
2022-11-05T19:57:03.279Z,9.93
2022-11-05T19:59:30.737Z,9.60
2022-11-05T20:01:58.221Z,9.37
2022-11-05T20:04:25.781Z,7.80
2022-11-05T20:06:53.195Z,10.50
2022-11-05T20:09:23.202Z,12.40
2022-11-05T20:11:51.033Z,11.50
2022-11-05T20:14:18.450Z,11.37
2022-11-05T20:16:46.257Z,12.00
2022-11-05T20:19:15.082Z,10.37
2022-11-05T20:21:42.680Z,7.73
2022-11-05T20:24:11.572Z,9.73
2022-11-05T20:26:40.894Z,9.87
2022-11-05T20:29:08.314Z,16.27
2022-11-05T20:31:36.297Z,11.70
2022-11-05T20:34:03.766Z,14.03
2022-11-05T20:36:31.241Z,13.10
2022-11-05T20:38:59.196Z,14.77
2022-11-05T20:41:27.170Z,14.07
2022-11-05T20:43:55.935Z,16.87
2022-11-05T20:46:23.578Z,13.73
2022-11-05T20:48:51.276Z,13.63
2022-11-05T20:51:19.670Z,10.00
2022-11-05T20:53:47.148Z,15.90
2022-11-05T20:56:17.871Z,11.30
2022-11-05T20:58:45.324Z,13.97
2022-11-05T21:01:15.630Z,10.00
2022-11-05T21:03:43.082Z,15.50
2022-11-05T21:06:10.718Z,12.60
2022-11-05T21:08:38.613Z,13.40
2022-11-05T21:11:06.966Z,12.10
2022-11-05T21:13:34.465Z,13.17
2022-11-05T21:16:02.249Z,10.23
2022-11-05T21:18:32.421Z,11.37
2022-11-05T21:21:00.350Z,10.57
2022-11-05T21:23:28.410Z,9.43
2022-11-05T21:25:55.817Z,9.17
2022-11-05T21:28:23.474Z,9.30
2022-11-05T21:30:51.009Z,9.20
2022-11-05T21:33:19.379Z,9.93
2022-11-05T21:35:49.099Z,10.77
2022-11-05T21:38:17.165Z,10.83
2022-11-05T21:40:44.932Z,7.37
2022-11-05T21:43:12.672Z,9.40
2022-11-05T21:45:40.193Z,9.43
2022-11-05T21:48:07.918Z,7.73
2022-11-05T21:50:53.273Z,7.97
2022-11-05T21:53:39.188Z,9.33
2022-11-05T21:56:24.507Z,10.10
2022-11-05T21:59:09.108Z,14.57
2022-11-05T22:01:36.646Z,8.33
2022-11-05T22:04:04.097Z,8.57
2022-11-05T22:06:33.066Z,12.70
2022-11-05T22:09:01.846Z,9.83
2022-11-05T22:11:29.255Z,10.30
2022-11-05T22:13:56.710Z,11.53
2022-11-05T22:16:24.113Z,10.33
2022-11-05T22:18:51.481Z,13.63
2022-11-05T22:21:19.350Z,11.60
2022-11-05T22:23:46.745Z,13.43
2022-11-05T22:26:16.456Z,14.63
2022-11-05T22:28:44.038Z,9.77
2022-11-05T22:31:12.795Z,12.20
2022-11-05T22:33:40.211Z,13.50
2022-11-05T22:36:07.994Z,11.17
2022-11-05T22:38:35.449Z,12.63
2022-11-05T22:41:07.303Z,13.83
2022-11-05T22:43:36.101Z,11.53
2022-11-05T22:46:07.697Z,9.93
2022-11-05T22:48:35.814Z,12.10
2022-11-05T22:51:04.129Z,14.93
2022-11-05T22:53:31.847Z,9.37
2022-11-05T22:55:59.255Z,9.70
2022-11-05T22:58:26.758Z,9.03
2022-11-05T23:00:55.561Z,10.57
2022-11-05T23:03:23.039Z,10.40
2022-11-05T23:05:57.031Z,8.80
2022-11-05T23:08:42.214Z,10.90
2022-11-05T23:11:32.490Z,11.83
2022-11-05T23:13:59.880Z,11.40
2022-11-05T23:16:46.633Z,13.60
2022-11-05T23:19:31.859Z,9.60
2022-11-05T23:22:16.895Z,9.10
2022-11-05T23:24:44.337Z,8.33
2022-11-05T23:27:12.031Z,9.53
2022-11-05T23:29:39.446Z,14.80
2022-11-05T23:32:28.039Z,7.87
2022-11-05T23:34:56.461Z,14.20
2022-11-05T23:37:42.022Z,8.50
2022-11-05T23:40:11.182Z,10.03
2022-11-05T23:42:56.509Z,7.67
2022-11-05T23:45:46.784Z,11.83
2022-11-05T23:48:19.387Z,8.00
2022-11-05T23:50:48.304Z,6.93
2022-11-05T23:53:15.718Z,6.27
2022-11-05T23:55:43.103Z,7.57
2022-11-05T23:58:11.445Z,10.00
